sensor_id;sensor_type;location;lat;lon;timestamp;temperature;humidity
73576;DHT22;61859;49.204;8.140;2022-09-25T00:00:18;13.90;99.30
73576;DHT22;61859;49.204;8.140;2022-09-25T00:02:44;14.00;99.30
73576;DHT22;61859;49.204;8.140;2022-09-25T00:05:09;13.90;99.40
73576;DHT22;61859;49.204;8.140;2022-09-25T00:07:35;13.90;99.30
73576;DHT22;61859;49.204;8.140;2022-09-25T00:10:00;13.80;99.50
73576;DHT22;61859;49.204;8.140;2022-09-25T00:12:26;13.90;99.50
73576;DHT22;61859;49.204;8.140;2022-09-25T00:14:51;13.90;99.40
73576;DHT22;61859;49.204;8.140;2022-09-25T00:17:17;13.90;99.40
73576;DHT22;61859;49.204;8.140;2022-09-25T00:19:43;13.90;99.50
73576;DHT22;61859;49.204;8.140;2022-09-25T00:22:15;13.90;99.60
73576;DHT22;61859;49.204;8.140;2022-09-25T00:24:41;13.90;99.60
73576;DHT22;61859;49.204;8.140;2022-09-25T00:27:07;13.90;99.50
73576;DHT22;61859;49.204;8.140;2022-09-25T00:29:35;13.90;99.60
73576;DHT22;61859;49.204;8.140;2022-09-25T00:32:02;13.90;99.60
73576;DHT22;61859;49.204;8.140;2022-09-25T00:34:28;13.90;99.60
73576;DHT22;61859;49.204;8.140;2022-09-25T00:36:53;13.90;99.10
73576;DHT22;61859;49.204;8.140;2022-09-25T00:39:19;14.00;99.30
73576;DHT22;61859;49.204;8.140;2022-09-25T00:41:44;14.00;99.20
73576;DHT22;61859;49.204;8.140;2022-09-25T00:47:10;13.90;99.20
73576;DHT22;61859;49.204;8.140;2022-09-25T00:49:37;13.90;99.30
73576;DHT22;61859;49.204;8.140;2022-09-25T00:52:06;13.90;99.30
73576;DHT22;61859;49.204;8.140;2022-09-25T00:54:45;13.90;99.40
73576;DHT22;61859;49.204;8.140;2022-09-25T00:57:15;13.90;99.30
73576;DHT22;61859;49.204;8.140;2022-09-25T00:59:44;13.90;99.30
73576;DHT22;61859;49.204;8.140;2022-09-25T01:02:18;13.90;99.30
73576;DHT22;61859;49.204;8.140;2022-09-25T01:04:46;13.90;99.40
73576;DHT22;61859;49.204;8.140;2022-09-25T01:07:13;13.90;99.50
73576;DHT22;61859;49.204;8.140;2022-09-25T01:09:40;13.80;99.70
73576;DHT22;61859;49.204;8.140;2022-09-25T01:12:05;13.70;99.90
73576;DHT22;61859;49.204;8.140;2022-09-25T01:14:32;13.70;99.90
73576;DHT22;61859;49.204;8.140;2022-09-25T01:23:10;13.60;99.90
73576;DHT22;61859;49.204;8.140;2022-09-25T01:34:25;13.50;99.90
73576;DHT22;61859;49.204;8.140;2022-09-25T01:36:57;13.40;99.90
73576;DHT22;61859;49.204;8.140;2022-09-25T01:39:30;13.50;99.90
73576;DHT22;61859;49.204;8.140;2022-09-25T01:42:04;13.50;99.90
73576;DHT22;61859;49.204;8.140;2022-09-25T01:44:37;13.40;99.90
73576;DHT22;61859;49.204;8.140;2022-09-25T01:47:10;13.40;99.90
73576;DHT22;61859;49.204;8.140;2022-09-25T01:49:48;13.50;99.90
73576;DHT22;61859;49.204;8.140;2022-09-25T01:52:19;13.40;99.90
73576;DHT22;61859;49.204;8.140;2022-09-25T01:54:48;13.40;99.90
73576;DHT22;61859;49.204;8.140;2022-09-25T01:57:33;13.50;99.90
73576;DHT22;61859;49.204;8.140;2022-09-25T02:00:06;13.40;99.90
73576;DHT22;61859;49.204;8.140;2022-09-25T02:02:39;13.50;99.90
73576;DHT22;61859;49.204;8.140;2022-09-25T02:07:44;13.40;99.90
73576;DHT22;61859;49.204;8.140;2022-09-25T02:10:21;13.40;99.90
73576;DHT22;61859;49.204;8.140;2022-09-25T02:12:50;13.40;99.90
73576;DHT22;61859;49.204;8.140;2022-09-25T02:15:24;13.40;99.90
73576;DHT22;61859;49.204;8.140;2022-09-25T02:17:59;13.40;99.90
73576;DHT22;61859;49.204;8.140;2022-09-25T02:20:50;13.40;99.90
73576;DHT22;61859;49.204;8.140;2022-09-25T02:23:18;13.40;99.90
73576;DHT22;61859;49.204;8.140;2022-09-25T02:25:58;13.40;99.90
73576;DHT22;61859;49.204;8.140;2022-09-25T02:28:26;13.40;99.90
73576;DHT22;61859;49.204;8.140;2022-09-25T02:30:53;13.40;99.90
73576;DHT22;61859;49.204;8.140;2022-09-25T02:33:20;13.40;99.90
73576;DHT22;61859;49.204;8.140;2022-09-25T02:35:46;13.40;99.90
73576;DHT22;61859;49.204;8.140;2022-09-25T02:38:12;13.40;99.90
73576;DHT22;61859;49.204;8.140;2022-09-25T02:40:54;13.40;99.90
73576;DHT22;61859;49.204;8.140;2022-09-25T02:46:02;13.40;99.90
73576;DHT22;61859;49.204;8.140;2022-09-25T02:48:55;13.40;99.90
73576;DHT22;61859;49.204;8.140;2022-09-25T02:51:45;13.40;99.90
73576;DHT22;61859;49.204;8.140;2022-09-25T02:54:47;13.40;99.90
73576;DHT22;61859;49.204;8.140;2022-09-25T02:57:44;13.40;99.90
73576;DHT22;61859;49.204;8.140;2022-09-25T03:00:13;13.40;99.90
73576;DHT22;61859;49.204;8.140;2022-09-25T03:02:40;13.30;99.90
73576;DHT22;61859;49.204;8.140;2022-09-25T03:05:10;13.30;99.90
73576;DHT22;61859;49.204;8.140;2022-09-25T03:07:37;13.40;99.90
73576;DHT22;61859;49.204;8.140;2022-09-25T03:10:22;13.30;99.90
73576;DHT22;61859;49.204;8.140;2022-09-25T03:12:48;13.30;99.90
73576;DHT22;61859;49.204;8.140;2022-09-25T03:15:13;13.20;99.90
73576;DHT22;61859;49.204;8.140;2022-09-25T03:17:39;13.30;99.90
73576;DHT22;61859;49.204;8.140;2022-09-25T03:20:05;13.30;99.90
73576;DHT22;61859;49.204;8.140;2022-09-25T03:22:31;13.40;99.90
73576;DHT22;61859;49.204;8.140;2022-09-25T03:24:57;13.30;99.90
73576;DHT22;61859;49.204;8.140;2022-09-25T03:27:22;13.30;99.90
73576;DHT22;61859;49.204;8.140;2022-09-25T03:29:52;13.30;99.90
73576;DHT22;61859;49.204;8.140;2022-09-25T03:32:19;13.40;99.90
73576;DHT22;61859;49.204;8.140;2022-09-25T03:34:45;13.40;99.90
73576;DHT22;61859;49.204;8.140;2022-09-25T03:37:11;13.30;99.90
73576;DHT22;61859;49.204;8.140;2022-09-25T03:39:36;13.40;99.90
73576;DHT22;61859;49.204;8.140;2022-09-25T03:42:02;13.40;99.90
73576;DHT22;61859;49.204;8.140;2022-09-25T03:44:28;13.40;99.90
73576;DHT22;61859;49.204;8.140;2022-09-25T03:46:54;13.40;99.90
73576;DHT22;61859;49.204;8.140;2022-09-25T03:49:19;13.40;99.90
73576;DHT22;61859;49.204;8.140;2022-09-25T03:51:45;13.40;99.90
73576;DHT22;61859;49.204;8.140;2022-09-25T03:54:10;13.40;99.90
73576;DHT22;61859;49.204;8.140;2022-09-25T03:56:36;13.50;99.90
73576;DHT22;61859;49.204;8.140;2022-09-25T03:59:01;13.50;99.90
73576;DHT22;61859;49.204;8.140;2022-09-25T04:01:27;13.40;99.90
73576;DHT22;61859;49.204;8.140;2022-09-25T04:03:53;13.40;99.90
73576;DHT22;61859;49.204;8.140;2022-09-25T04:06:22;13.40;99.90
73576;DHT22;61859;49.204;8.140;2022-09-25T04:08:48;13.40;99.90
73576;DHT22;61859;49.204;8.140;2022-09-25T04:11:18;13.40;99.90
73576;DHT22;61859;49.204;8.140;2022-09-25T04:13:44;13.30;99.90
73576;DHT22;61859;49.204;8.140;2022-09-25T04:16:11;13.40;99.90
73576;DHT22;61859;49.204;8.140;2022-09-25T04:18:37;13.30;99.90
73576;DHT22;61859;49.204;8.140;2022-09-25T04:21:05;13.40;99.90
73576;DHT22;61859;49.204;8.140;2022-09-25T04:23:32;13.30;99.90
73576;DHT22;61859;49.204;8.140;2022-09-25T04:25:57;13.30;99.90
73576;DHT22;61859;49.204;8.140;2022-09-25T04:28:23;13.20;99.90
73576;DHT22;61859;49.204;8.140;2022-09-25T04:30:50;13.40;99.90
73576;DHT22;61859;49.204;8.140;2022-09-25T04:33:16;13.30;99.90
73576;DHT22;61859;49.204;8.140;2022-09-25T04:36:01;13.30;99.90
73576;DHT22;61859;49.204;8.140;2022-09-25T04:38:27;13.30;99.90
73576;DHT22;61859;49.204;8.140;2022-09-25T04:40:57;13.40;99.90
73576;DHT22;61859;49.204;8.140;2022-09-25T04:43:23;13.30;99.90
73576;DHT22;61859;49.204;8.140;2022-09-25T04:45:49;13.40;99.90
73576;DHT22;61859;49.204;8.140;2022-09-25T04:48:15;13.30;99.90
73576;DHT22;61859;49.204;8.140;2022-09-25T04:50:47;13.30;99.90
73576;DHT22;61859;49.204;8.140;2022-09-25T04:53:13;13.40;99.90
73576;DHT22;61859;49.204;8.140;2022-09-25T04:55:38;13.30;99.90
73576;DHT22;61859;49.204;8.140;2022-09-25T04:58:04;13.40;99.90
73576;DHT22;61859;49.204;8.140;2022-09-25T05:00:30;13.30;99.90
73576;DHT22;61859;49.204;8.140;2022-09-25T05:02:57;13.30;99.90
73576;DHT22;61859;49.204;8.140;2022-09-25T05:05:22;13.40;99.90
73576;DHT22;61859;49.204;8.140;2022-09-25T05:07:57;13.30;99.90
73576;DHT22;61859;49.204;8.140;2022-09-25T05:10:27;13.30;99.90
73576;DHT22;61859;49.204;8.140;2022-09-25T05:12:54;13.30;99.90
73576;DHT22;61859;49.204;8.140;2022-09-25T05:15:20;13.30;99.90
73576;DHT22;61859;49.204;8.140;2022-09-25T05:17:46;13.30;99.90
73576;DHT22;61859;49.204;8.140;2022-09-25T05:20:11;13.30;99.90
73576;DHT22;61859;49.204;8.140;2022-09-25T05:22:37;13.30;99.90
73576;DHT22;61859;49.204;8.140;2022-09-25T05:25:03;13.40;99.90
73576;DHT22;61859;49.204;8.140;2022-09-25T05:27:32;13.30;99.90
73576;DHT22;61859;49.204;8.140;2022-09-25T05:29:58;13.30;99.90
73576;DHT22;61859;49.204;8.140;2022-09-25T05:32:24;13.40;99.90
73576;DHT22;61859;49.204;8.140;2022-09-25T05:34:49;13.30;99.90
73576;DHT22;61859;49.204;8.140;2022-09-25T05:37:15;13.20;99.90
73576;DHT22;61859;49.204;8.140;2022-09-25T05:39:41;13.30;99.90
73576;DHT22;61859;49.204;8.140;2022-09-25T05:42:07;13.20;99.90
73576;DHT22;61859;49.204;8.140;2022-09-25T05:44:33;13.20;99.90
73576;DHT22;61859;49.204;8.140;2022-09-25T05:46:58;13.30;99.90
73576;DHT22;61859;49.204;8.140;2022-09-25T05:49:24;13.20;99.90
73576;DHT22;61859;49.204;8.140;2022-09-25T05:51:50;13.20;99.90
73576;DHT22;61859;49.204;8.140;2022-09-25T05:54:15;13.30;99.90
73576;DHT22;61859;49.204;8.140;2022-09-25T05:56:41;13.30;99.90
73576;DHT22;61859;49.204;8.140;2022-09-25T05:59:06;13.30;99.90
73576;DHT22;61859;49.204;8.140;2022-09-25T06:01:32;13.40;99.90
73576;DHT22;61859;49.204;8.140;2022-09-25T06:03:57;13.40;99.90
73576;DHT22;61859;49.204;8.140;2022-09-25T06:06:23;13.40;99.90
73576;DHT22;61859;49.204;8.140;2022-09-25T06:08:48;13.50;99.90
73576;DHT22;61859;49.204;8.140;2022-09-25T06:11:14;13.40;99.90
73576;DHT22;61859;49.204;8.140;2022-09-25T06:13:40;13.40;99.90
73576;DHT22;61859;49.204;8.140;2022-09-25T06:16:13;13.50;99.90
73576;DHT22;61859;49.204;8.140;2022-09-25T06:18:41;13.50;99.90
73576;DHT22;61859;49.204;8.140;2022-09-25T06:21:07;13.50;99.90
73576;DHT22;61859;49.204;8.140;2022-09-25T06:23:33;13.50;99.90
73576;DHT22;61859;49.204;8.140;2022-09-25T06:26:03;13.60;99.90
73576;DHT22;61859;49.204;8.140;2022-09-25T06:28:29;13.60;99.90
73576;DHT22;61859;49.204;8.140;2022-09-25T06:30:58;13.60;99.90
73576;DHT22;61859;49.204;8.140;2022-09-25T06:33:23;13.60;99.90
73576;DHT22;61859;49.204;8.140;2022-09-25T06:35:49;13.60;99.90
73576;DHT22;61859;49.204;8.140;2022-09-25T06:38:15;13.60;99.90
73576;DHT22;61859;49.204;8.140;2022-09-25T06:40:41;13.70;99.90
73576;DHT22;61859;49.204;8.140;2022-09-25T06:43:12;13.70;99.90
73576;DHT22;61859;49.204;8.140;2022-09-25T06:45:38;13.60;99.90
73576;DHT22;61859;49.204;8.140;2022-09-25T06:48:05;13.80;99.90
73576;DHT22;61859;49.204;8.140;2022-09-25T06:50:42;13.80;99.90
73576;DHT22;61859;49.204;8.140;2022-09-25T06:53:10;13.70;99.90
73576;DHT22;61859;49.204;8.140;2022-09-25T06:55:36;13.80;99.90
73576;DHT22;61859;49.204;8.140;2022-09-25T06:58:04;13.90;99.90
73576;DHT22;61859;49.204;8.140;2022-09-25T07:00:31;13.90;99.90
73576;DHT22;61859;49.204;8.140;2022-09-25T07:02:57;14.00;99.90
73576;DHT22;61859;49.204;8.140;2022-09-25T07:05:42;14.00;99.90
73576;DHT22;61859;49.204;8.140;2022-09-25T07:08:09;14.00;99.90
73576;DHT22;61859;49.204;8.140;2022-09-25T07:10:35;14.00;99.90
73576;DHT22;61859;49.204;8.140;2022-09-25T07:13:00;14.00;99.90
73576;DHT22;61859;49.204;8.140;2022-09-25T07:15:26;14.10;99.90
73576;DHT22;61859;49.204;8.140;2022-09-25T07:17:51;14.00;99.90
73576;DHT22;61859;49.204;8.140;2022-09-25T07:20:17;14.00;99.90
73576;DHT22;61859;49.204;8.140;2022-09-25T07:22:42;14.10;99.90
73576;DHT22;61859;49.204;8.140;2022-09-25T07:25:09;14.20;99.90
73576;DHT22;61859;49.204;8.140;2022-09-25T07:27:35;14.20;99.90
73576;DHT22;61859;49.204;8.140;2022-09-25T07:30:01;14.20;99.90
73576;DHT22;61859;49.204;8.140;2022-09-25T07:32:28;14.20;99.90
73576;DHT22;61859;49.204;8.140;2022-09-25T07:34:53;14.30;99.90
73576;DHT22;61859;49.204;8.140;2022-09-25T07:37:19;14.30;99.90
73576;DHT22;61859;49.204;8.140;2022-09-25T07:39:45;14.20;99.90
73576;DHT22;61859;49.204;8.140;2022-09-25T07:42:10;14.20;99.90
73576;DHT22;61859;49.204;8.140;2022-09-25T07:44:36;14.30;99.90
73576;DHT22;61859;49.204;8.140;2022-09-25T07:47:02;14.30;99.90
73576;DHT22;61859;49.204;8.140;2022-09-25T07:49:30;14.20;99.90
73576;DHT22;61859;49.204;8.140;2022-09-25T07:51:56;14.20;99.90
73576;DHT22;61859;49.204;8.140;2022-09-25T07:54:21;14.10;99.90
73576;DHT22;61859;49.204;8.140;2022-09-25T07:56:49;14.10;99.90
73576;DHT22;61859;49.204;8.140;2022-09-25T07:59:14;14.10;99.90
73576;DHT22;61859;49.204;8.140;2022-09-25T08:01:40;14.00;99.90
73576;DHT22;61859;49.204;8.140;2022-09-25T08:04:05;14.00;99.90
73576;DHT22;61859;49.204;8.140;2022-09-25T08:06:33;14.10;99.90
73576;DHT22;61859;49.204;8.140;2022-09-25T08:08:59;14.00;99.90
73576;DHT22;61859;49.204;8.140;2022-09-25T08:11:25;14.00;99.90
73576;DHT22;61859;49.204;8.140;2022-09-25T08:13:52;14.00;99.90
73576;DHT22;61859;49.204;8.140;2022-09-25T08:16:18;13.90;99.90
73576;DHT22;61859;49.204;8.140;2022-09-25T08:18:46;13.90;99.90
73576;DHT22;61859;49.204;8.140;2022-09-25T08:21:13;14.00;99.90
73576;DHT22;61859;49.204;8.140;2022-09-25T08:23:40;13.90;99.90
73576;DHT22;61859;49.204;8.140;2022-09-25T08:26:07;13.90;99.90
73576;DHT22;61859;49.204;8.140;2022-09-25T08:28:33;13.90;99.90
73576;DHT22;61859;49.204;8.140;2022-09-25T08:30:59;13.90;99.90
73576;DHT22;61859;49.204;8.140;2022-09-25T08:33:25;13.90;99.90
73576;DHT22;61859;49.204;8.140;2022-09-25T08:35:59;13.80;99.90
73576;DHT22;61859;49.204;8.140;2022-09-25T08:38:26;13.80;99.90
73576;DHT22;61859;49.204;8.140;2022-09-25T08:41:03;13.80;99.90
73576;DHT22;61859;49.204;8.140;2022-09-25T08:43:33;13.80;99.90
73576;DHT22;61859;49.204;8.140;2022-09-25T08:46:01;14.00;99.90
73576;DHT22;61859;49.204;8.140;2022-09-25T08:48:54;14.00;99.90
73576;DHT22;61859;49.204;8.140;2022-09-25T08:51:36;14.00;99.90
73576;DHT22;61859;49.204;8.140;2022-09-25T08:54:04;14.10;99.90
73576;DHT22;61859;49.204;8.140;2022-09-25T08:56:32;14.10;99.90
73576;DHT22;61859;49.204;8.140;2022-09-25T09:01:52;14.20;99.90
73576;DHT22;61859;49.204;8.140;2022-09-25T09:04:27;14.30;99.90
73576;DHT22;61859;49.204;8.140;2022-09-25T09:06:58;14.40;99.90
73576;DHT22;61859;49.204;8.140;2022-09-25T09:09:31;14.30;99.90
73576;DHT22;61859;49.204;8.140;2022-09-25T09:12:10;14.50;99.90
73576;DHT22;61859;49.204;8.140;2022-09-25T09:14:45;14.40;99.90
73576;DHT22;61859;49.204;8.140;2022-09-25T09:17:21;14.50;99.90
73576;DHT22;61859;49.204;8.140;2022-09-25T09:19:51;14.50;99.90
73576;DHT22;61859;49.204;8.140;2022-09-25T09:22:41;14.50;99.90
73576;DHT22;61859;49.204;8.140;2022-09-25T09:25:25;14.50;99.90
73576;DHT22;61859;49.204;8.140;2022-09-25T09:33:23;14.30;99.90
73576;DHT22;61859;49.204;8.140;2022-09-25T09:35:59;14.30;99.90
73576;DHT22;61859;49.204;8.140;2022-09-25T09:38:48;14.20;99.90
73576;DHT22;61859;49.204;8.140;2022-09-25T09:50:05;14.00;99.90
73576;DHT22;61859;49.204;8.140;2022-09-25T09:52:39;14.00;99.90
73576;DHT22;61859;49.204;8.140;2022-09-25T09:57:47;14.10;99.90
73576;DHT22;61859;49.204;8.140;2022-09-25T10:00:19;14.20;99.90
73576;DHT22;61859;49.204;8.140;2022-09-25T10:02:58;14.20;99.90
73576;DHT22;61859;49.204;8.140;2022-09-25T10:05:27;14.20;99.90
73576;DHT22;61859;49.204;8.140;2022-09-25T10:07:54;14.20;99.90
73576;DHT22;61859;49.204;8.140;2022-09-25T10:10:34;14.20;99.90
73576;DHT22;61859;49.204;8.140;2022-09-25T10:13:00;14.20;99.90
73576;DHT22;61859;49.204;8.140;2022-09-25T10:15:42;14.30;99.90
73576;DHT22;61859;49.204;8.140;2022-09-25T10:18:09;14.40;99.90
73576;DHT22;61859;49.204;8.140;2022-09-25T10:20:44;14.50;99.90
73576;DHT22;61859;49.204;8.140;2022-09-25T10:23:38;14.70;99.90
73576;DHT22;61859;49.204;8.140;2022-09-25T10:26:33;14.70;99.90
73576;DHT22;61859;49.204;8.140;2022-09-25T10:31:46;14.90;99.90
73576;DHT22;61859;49.204;8.140;2022-09-25T10:36:40;15.00;99.90
73576;DHT22;61859;49.204;8.140;2022-09-25T10:39:27;15.10;99.90
73576;DHT22;61859;49.204;8.140;2022-09-25T10:41:54;15.10;99.90
73576;DHT22;61859;49.204;8.140;2022-09-25T10:44:29;15.30;99.90
73576;DHT22;61859;49.204;8.140;2022-09-25T10:50:13;15.40;99.10
73576;DHT22;61859;49.204;8.140;2022-09-25T10:52:49;15.30;99.30
73576;DHT22;61859;49.204;8.140;2022-09-25T10:55:40;15.40;99.30
73576;DHT22;61859;49.204;8.140;2022-09-25T10:58:12;15.50;98.70
73576;DHT22;61859;49.204;8.140;2022-09-25T11:00:52;15.50;98.30
73576;DHT22;61859;49.204;8.140;2022-09-25T11:05:51;15.70;97.70
73576;DHT22;61859;49.204;8.140;2022-09-25T11:08:19;15.70;97.60
73576;DHT22;61859;49.204;8.140;2022-09-25T11:10:53;15.80;97.20
73576;DHT22;61859;49.204;8.140;2022-09-25T11:13:23;15.80;96.70
73576;DHT22;61859;49.204;8.140;2022-09-25T11:15:52;15.80;97.10
73576;DHT22;61859;49.204;8.140;2022-09-25T11:18:44;15.90;97.20
73576;DHT22;61859;49.204;8.140;2022-09-25T11:21:30;16.00;97.10
73576;DHT22;61859;49.204;8.140;2022-09-25T11:26:26;16.00;96.20
73576;DHT22;61859;49.204;8.140;2022-09-25T11:37:18;16.00;95.40
73576;DHT22;61859;49.204;8.140;2022-09-25T11:39:48;16.20;94.10
73576;DHT22;61859;49.204;8.140;2022-09-25T11:45:23;16.20;94.00
73576;DHT22;61859;49.204;8.140;2022-09-25T11:48:03;16.10;94.30
73576;DHT22;61859;49.204;8.140;2022-09-25T11:51:15;16.10;93.80
73576;DHT22;61859;49.204;8.140;2022-09-25T11:57:08;15.90;95.30
73576;DHT22;61859;49.204;8.140;2022-09-25T12:02:40;15.90;96.10
73576;DHT22;61859;49.204;8.140;2022-09-25T12:05:23;15.90;96.50
73576;DHT22;61859;49.204;8.140;2022-09-25T12:15:59;15.60;97.50
73576;DHT22;61859;49.204;8.140;2022-09-25T12:21:25;15.40;97.90
73576;DHT22;61859;49.204;8.140;2022-09-25T12:24:21;15.40;98.20
73576;DHT22;61859;49.204;8.140;2022-09-25T12:27:18;15.30;98.60
73576;DHT22;61859;49.204;8.140;2022-09-25T12:30:02;15.40;98.40
73576;DHT22;61859;49.204;8.140;2022-09-25T12:35:19;15.20;98.70
73576;DHT22;61859;49.204;8.140;2022-09-25T12:37:55;15.20;99.00
73576;DHT22;61859;49.204;8.140;2022-09-25T12:40:30;15.40;99.00
73576;DHT22;61859;49.204;8.140;2022-09-25T12:45:34;15.30;99.10
73576;DHT22;61859;49.204;8.140;2022-09-25T12:50:49;15.30;99.00
73576;DHT22;61859;49.204;8.140;2022-09-25T12:53:29;15.30;99.40
73576;DHT22;61859;49.204;8.140;2022-09-25T12:56:07;15.30;98.90
73576;DHT22;61859;49.204;8.140;2022-09-25T12:59:00;15.30;99.20
73576;DHT22;61859;49.204;8.140;2022-09-25T13:04:04;15.50;96.50
73576;DHT22;61859;49.204;8.140;2022-09-25T13:06:38;15.50;97.20
73576;DHT22;61859;49.204;8.140;2022-09-25T13:09:19;15.50;97.20
73576;DHT22;61859;49.204;8.140;2022-09-25T13:11:51;15.60;97.20
73576;DHT22;61859;49.204;8.140;2022-09-25T13:14:29;15.70;96.70
73576;DHT22;61859;49.204;8.140;2022-09-25T13:16:56;15.80;96.50
73576;DHT22;61859;49.204;8.140;2022-09-25T13:19:26;15.80;96.00
73576;DHT22;61859;49.204;8.140;2022-09-25T13:22:08;16.00;96.30
73576;DHT22;61859;49.204;8.140;2022-09-25T13:25:01;15.90;96.30
73576;DHT22;61859;49.204;8.140;2022-09-25T13:27:40;16.10;96.20
73576;DHT22;61859;49.204;8.140;2022-09-25T13:30:25;16.10;95.70
73576;DHT22;61859;49.204;8.140;2022-09-25T13:32:53;16.20;94.60
73576;DHT22;61859;49.204;8.140;2022-09-25T13:35:22;16.30;95.10
73576;DHT22;61859;49.204;8.140;2022-09-25T13:37:49;16.10;93.00
73576;DHT22;61859;49.204;8.140;2022-09-25T13:40:18;16.10;91.40
73576;DHT22;61859;49.204;8.140;2022-09-25T13:43:24;16.10;92.70
73576;DHT22;61859;49.204;8.140;2022-09-25T13:48:42;16.30;93.10
73576;DHT22;61859;49.204;8.140;2022-09-25T14:02:25;16.70;92.10
73576;DHT22;61859;49.204;8.140;2022-09-25T14:04:36;17.10;91.50
73576;DHT22;61859;49.204;8.140;2022-09-25T14:07:20;17.40;90.30
73576;DHT22;61859;49.204;8.140;2022-09-25T14:09:58;17.60;89.30
73576;DHT22;61859;49.204;8.140;2022-09-25T14:12:25;18.00;88.70
73576;DHT22;61859;49.204;8.140;2022-09-25T14:15:00;18.00;88.50
73576;DHT22;61859;49.204;8.140;2022-09-25T14:17:28;17.60;86.10
73576;DHT22;61859;49.204;8.140;2022-09-25T14:19:57;17.20;87.00
73576;DHT22;61859;49.204;8.140;2022-09-25T14:22:42;16.80;88.10
73576;DHT22;61859;49.204;8.140;2022-09-25T14:25:31;16.30;89.40
73576;DHT22;61859;49.204;8.140;2022-09-25T14:27:58;15.80;91.40
73576;DHT22;61859;49.204;8.140;2022-09-25T14:30:25;15.70;93.00
73576;DHT22;61859;49.204;8.140;2022-09-25T14:33:18;15.40;94.30
73576;DHT22;61859;49.204;8.140;2022-09-25T14:39:03;14.80;96.90
73576;DHT22;61859;49.204;8.140;2022-09-25T14:46:54;14.00;99.90
73576;DHT22;61859;49.204;8.140;2022-09-25T14:49:34;13.90;99.90
73576;DHT22;61859;49.204;8.140;2022-09-25T14:52:06;13.80;99.90
73576;DHT22;61859;49.204;8.140;2022-09-25T14:54:36;13.70;99.90
73576;DHT22;61859;49.204;8.140;2022-09-25T14:57:05;13.70;99.90
73576;DHT22;61859;49.204;8.140;2022-09-25T14:59:53;13.60;99.90
73576;DHT22;61859;49.204;8.140;2022-09-25T15:02:40;13.50;99.90
73576;DHT22;61859;49.204;8.140;2022-09-25T15:05:31;13.40;99.90
73576;DHT22;61859;49.204;8.140;2022-09-25T15:08:00;13.30;99.90
73576;DHT22;61859;49.204;8.140;2022-09-25T15:10:35;13.20;99.90
73576;DHT22;61859;49.204;8.140;2022-09-25T15:13:17;13.30;99.90
73576;DHT22;61859;49.204;8.140;2022-09-25T15:15:47;13.30;99.90
73576;DHT22;61859;49.204;8.140;2022-09-25T15:18:35;13.30;99.90
73576;DHT22;61859;49.204;8.140;2022-09-25T15:21:02;13.40;99.90
73576;DHT22;61859;49.204;8.140;2022-09-25T15:23:28;13.40;99.90
73576;DHT22;61859;49.204;8.140;2022-09-25T15:25:55;13.40;99.90
73576;DHT22;61859;49.204;8.140;2022-09-25T15:28:25;13.50;99.90
73576;DHT22;61859;49.204;8.140;2022-09-25T15:30:57;13.60;99.90
73576;DHT22;61859;49.204;8.140;2022-09-25T15:33:32;13.50;99.90
73576;DHT22;61859;49.204;8.140;2022-09-25T15:36:13;13.60;99.90
73576;DHT22;61859;49.204;8.140;2022-09-25T15:38:39;13.70;99.90
73576;DHT22;61859;49.204;8.140;2022-09-25T15:41:06;13.70;99.90
73576;DHT22;61859;49.204;8.140;2022-09-25T15:43:32;13.60;99.90
73576;DHT22;61859;49.204;8.140;2022-09-25T15:48:35;13.60;99.90
73576;DHT22;61859;49.204;8.140;2022-09-25T15:51:04;13.60;99.90
73576;DHT22;61859;49.204;8.140;2022-09-25T15:53:38;13.80;99.90
73576;DHT22;61859;49.204;8.140;2022-09-25T15:56:19;13.70;99.90
73576;DHT22;61859;49.204;8.140;2022-09-25T15:58:51;13.80;99.90
73576;DHT22;61859;49.204;8.140;2022-09-25T16:01:27;13.80;99.90
73576;DHT22;61859;49.204;8.140;2022-09-25T16:04:20;13.80;99.90
73576;DHT22;61859;49.204;8.140;2022-09-25T16:09:48;13.80;99.90
73576;DHT22;61859;49.204;8.140;2022-09-25T16:12:26;13.80;99.90
73576;DHT22;61859;49.204;8.140;2022-09-25T16:14:53;13.80;99.90
73576;DHT22;61859;49.204;8.140;2022-09-25T16:17:39;13.90;99.90
73576;DHT22;61859;49.204;8.140;2022-09-25T16:22:54;13.80;99.90
73576;DHT22;61859;49.204;8.140;2022-09-25T16:25:24;13.80;99.90
73576;DHT22;61859;49.204;8.140;2022-09-25T16:27:54;13.80;99.90
73576;DHT22;61859;49.204;8.140;2022-09-25T16:30:24;13.80;99.90
73576;DHT22;61859;49.204;8.140;2022-09-25T16:32:54;13.70;99.90
73576;DHT22;61859;49.204;8.140;2022-09-25T16:35:32;13.60;99.90
73576;DHT22;61859;49.204;8.140;2022-09-25T16:38:00;13.60;99.90
73576;DHT22;61859;49.204;8.140;2022-09-25T16:40:28;13.60;99.90
73576;DHT22;61859;49.204;8.140;2022-09-25T16:42:58;13.60;99.90
73576;DHT22;61859;49.204;8.140;2022-09-25T16:45:28;13.60;99.90
73576;DHT22;61859;49.204;8.140;2022-09-25T16:47:56;13.50;99.90
73576;DHT22;61859;49.204;8.140;2022-09-25T16:50:27;13.50;99.90
73576;DHT22;61859;49.204;8.140;2022-09-25T16:52:53;13.50;99.90
73576;DHT22;61859;49.204;8.140;2022-09-25T16:55:24;13.50;99.90
73576;DHT22;61859;49.204;8.140;2022-09-25T16:57:52;13.50;99.90
73576;DHT22;61859;49.204;8.140;2022-09-25T17:00:23;13.50;99.90
73576;DHT22;61859;49.204;8.140;2022-09-25T17:02:49;13.50;99.90
73576;DHT22;61859;49.204;8.140;2022-09-25T17:05:18;13.50;99.90
73576;DHT22;61859;49.204;8.140;2022-09-25T17:07:49;13.50;99.90
73576;DHT22;61859;49.204;8.140;2022-09-25T17:10:21;13.40;99.90
73576;DHT22;61859;49.204;8.140;2022-09-25T17:12:48;13.40;99.90
73576;DHT22;61859;49.204;8.140;2022-09-25T17:17:48;13.40;99.90
73576;DHT22;61859;49.204;8.140;2022-09-25T17:20:23;13.40;99.90
73576;DHT22;61859;49.204;8.140;2022-09-25T17:22:49;13.40;99.90
73576;DHT22;61859;49.204;8.140;2022-09-25T17:25:37;13.30;99.90
73576;DHT22;61859;49.204;8.140;2022-09-25T17:28:05;13.30;99.90
73576;DHT22;61859;49.204;8.140;2022-09-25T17:30:31;13.30;99.90
73576;DHT22;61859;49.204;8.140;2022-09-25T17:32:56;13.30;99.90
73576;DHT22;61859;49.204;8.140;2022-09-25T17:35:36;13.20;99.90
73576;DHT22;61859;49.204;8.140;2022-09-25T17:38:03;13.20;99.90
73576;DHT22;61859;49.204;8.140;2022-09-25T17:40:29;13.20;99.90
73576;DHT22;61859;49.204;8.140;2022-09-25T17:42:55;13.20;99.90
73576;DHT22;61859;49.204;8.140;2022-09-25T17:48:01;13.20;99.90
73576;DHT22;61859;49.204;8.140;2022-09-25T17:50:27;13.20;99.90
73576;DHT22;61859;49.204;8.140;2022-09-25T17:52:54;13.10;99.90
73576;DHT22;61859;49.204;8.140;2022-09-25T17:55:20;13.10;99.90
73576;DHT22;61859;49.204;8.140;2022-09-25T17:57:46;13.20;99.90
73576;DHT22;61859;49.204;8.140;2022-09-25T18:00:13;13.10;99.90
73576;DHT22;61859;49.204;8.140;2022-09-25T18:02:39;13.00;99.90
73576;DHT22;61859;49.204;8.140;2022-09-25T18:05:05;13.10;99.90